Aviation Digital Data Service (ADDS)

Output produced by TAFs form (0103 UTC 24 July 2016)
found at http://aviationweather.gov/adds/tafs/
 
KCNY 232331Z 2400/2424 26007KT P6SM VCTS FEW080CB BKN140 
     TEMPO 2400/2402 VRB18G28KT -TSRA BKN090CB 
     FM240800 17004KT P6SM FEW250 
     FM241400 10005KT P6SM FEW250 
     FM241900 25005KT P6SM FEW250